sensor_id;sensor_type;location;lat;lon;timestamp;pressure;altitude;pressure_sealevel;temperature;humidity
3812;BME280;1921;49.368;11.068;2023-03-25T00:02:00;96957.00;;;10.45;84.25
3812;BME280;1921;49.368;11.068;2023-03-25T00:04:26;96948.38;;;10.44;84.30
3812;BME280;1921;49.368;11.068;2023-03-25T00:06:55;96998.59;;;10.66;83.93
3812;BME280;1921;49.368;11.068;2023-03-25T00:09:22;96974.25;;;10.52;84.15
3812;BME280;1921;49.368;11.068;2023-03-25T00:11:51;96981.69;;;10.56;84.28
3812;BME280;1921;49.368;11.068;2023-03-25T00:14:17;96916.41;;;10.36;83.53
3812;BME280;1921;49.368;11.068;2023-03-25T00:16:44;96965.72;;;10.72;83.18
3812;BME280;1921;49.368;11.068;2023-03-25T00:19:14;96926.47;;;10.39;83.23
3812;BME280;1921;49.368;11.068;2023-03-25T00:21:41;96974.44;;;10.44;83.98
3812;BME280;1921;49.368;11.068;2023-03-25T00:24:10;96954.69;;;10.29;84.33
3812;BME280;1921;49.368;11.068;2023-03-25T00:26:46;96939.50;;;10.11;84.75
3812;BME280;1921;49.368;11.068;2023-03-25T00:29:15;96957.16;;;10.15;85.89
3812;BME280;1921;49.368;11.068;2023-03-25T00:31:42;96926.63;;;10.03;84.98
3812;BME280;1921;49.368;11.068;2023-03-25T00:34:08;96946.13;;;10.13;85.30
3812;BME280;1921;49.368;11.068;2023-03-25T00:36:39;96889.84;;;9.84;85.53
3812;BME280;1921;49.368;11.068;2023-03-25T00:39:07;96924.22;;;10.01;85.96
3812;BME280;1921;49.368;11.068;2023-03-25T00:41:33;96967.63;;;10.22;86.23
3812;BME280;1921;49.368;11.068;2023-03-25T00:44:02;96972.59;;;10.17;87.15
3812;BME280;1921;49.368;11.068;2023-03-25T00:46:31;96955.97;;;10.18;86.55
3812;BME280;1921;49.368;11.068;2023-03-25T00:48:57;96917.16;;;9.95;85.96
3812;BME280;1921;49.368;11.068;2023-03-25T00:51:25;96927.22;;;10.05;84.63
3812;BME280;1921;49.368;11.068;2023-03-25T00:53:54;96935.53;;;10.15;84.80
3812;BME280;1921;49.368;11.068;2023-03-25T00:56:22;96942.31;;;10.09;85.75
3812;BME280;1921;49.368;11.068;2023-03-25T00:58:49;96956.97;;;10.17;87.93
3812;BME280;1921;49.368;11.068;2023-03-25T01:01:25;96962.81;;;9.91;89.00
3812;BME280;1921;49.368;11.068;2023-03-25T01:03:58;96922.06;;;9.55;90.80
3812;BME280;1921;49.368;11.068;2023-03-25T01:06:32;96925.47;;;9.34;91.54
3812;BME280;1921;49.368;11.068;2023-03-25T01:09:01;96926.22;;;9.28;93.14
3812;BME280;1921;49.368;11.068;2023-03-25T01:11:29;96914.16;;;9.21;93.49
3812;BME280;1921;49.368;11.068;2023-03-25T01:13:59;96912.09;;;9.16;93.77
3812;BME280;1921;49.368;11.068;2023-03-25T01:16:27;96918.59;;;9.05;95.37
3812;BME280;1921;49.368;11.068;2023-03-25T01:18:54;96955.03;;;9.27;96.65
3812;BME280;1921;49.368;11.068;2023-03-25T01:21:20;96916.31;;;8.96;96.38
3812;BME280;1921;49.368;11.068;2023-03-25T01:23:46;96911.59;;;9.06;95.59
3812;BME280;1921;49.368;11.068;2023-03-25T01:26:12;96916.38;;;9.02;94.89
3812;BME280;1921;49.368;11.068;2023-03-25T01:28:42;96887.38;;;8.84;95.18
3812;BME280;1921;49.368;11.068;2023-03-25T01:31:12;96867.91;;;8.80;94.61
3812;BME280;1921;49.368;11.068;2023-03-25T01:33:39;96922.72;;;9.00;95.39
3812;BME280;1921;49.368;11.068;2023-03-25T01:36:05;96929.84;;;8.91;95.23
3812;BME280;1921;49.368;11.068;2023-03-25T01:38:35;96940.69;;;8.95;95.24
3812;BME280;1921;49.368;11.068;2023-03-25T01:41:02;96851.34;;;8.45;95.23
3812;BME280;1921;49.368;11.068;2023-03-25T01:43:29;96885.53;;;8.63;95.45
3812;BME280;1921;49.368;11.068;2023-03-25T01:45:56;96902.09;;;8.77;94.98
3812;BME280;1921;49.368;11.068;2023-03-25T01:48:36;96912.81;;;8.88;94.56
3812;BME280;1921;49.368;11.068;2023-03-25T01:51:15;96944.78;;;9.04;94.13
3812;BME280;1921;49.368;11.068;2023-03-25T01:53:43;96907.97;;;8.85;93.89
3812;BME280;1921;49.368;11.068;2023-03-25T01:56:12;96930.38;;;9.01;94.12
3812;BME280;1921;49.368;11.068;2023-03-25T01:58:40;96883.72;;;8.78;93.63
3812;BME280;1921;49.368;11.068;2023-03-25T02:01:07;96859.00;;;8.68;93.17
3812;BME280;1921;49.368;11.068;2023-03-25T02:03:40;96925.03;;;9.09;92.87
3812;BME280;1921;49.368;11.068;2023-03-25T02:06:24;96936.56;;;9.22;92.17
3812;BME280;1921;49.368;11.068;2023-03-25T02:08:54;96876.97;;;8.84;91.82
3812;BME280;1921;49.368;11.068;2023-03-25T02:11:21;96871.31;;;8.80;91.82
3812;BME280;1921;49.368;11.068;2023-03-25T02:13:50;96925.84;;;9.10;91.21
3812;BME280;1921;49.368;11.068;2023-03-25T02:16:41;96927.22;;;9.27;90.58
3812;BME280;1921;49.368;11.068;2023-03-25T02:19:46;96927.81;;;9.29;89.78
3812;BME280;1921;49.368;11.068;2023-03-25T02:25:54;96929.75;;;9.21;89.40
3812;BME280;1921;49.368;11.068;2023-03-25T02:28:46;96949.75;;;9.20;89.21
3812;BME280;1921;49.368;11.068;2023-03-25T02:31:36;96940.31;;;9.19;88.59
3812;BME280;1921;49.368;11.068;2023-03-25T02:40:27;96917.59;;;9.06;88.26
3812;BME280;1921;49.368;11.068;2023-03-25T02:43:15;96947.78;;;9.22;88.76
3812;BME280;1921;49.368;11.068;2023-03-25T02:45:47;96905.19;;;8.87;88.36
3812;BME280;1921;49.368;11.068;2023-03-25T02:48:21;96903.03;;;8.90;88.75
3812;BME280;1921;49.368;11.068;2023-03-25T02:50:54;96929.31;;;8.96;88.78
3812;BME280;1921;49.368;11.068;2023-03-25T02:53:31;96898.03;;;8.74;88.97
3812;BME280;1921;49.368;11.068;2023-03-25T02:56:02;96879.84;;;8.74;89.00
3812;BME280;1921;49.368;11.068;2023-03-25T02:58:30;96943.13;;;9.17;88.51
3812;BME280;1921;49.368;11.068;2023-03-25T03:00:57;96902.22;;;8.90;88.32
3812;BME280;1921;49.368;11.068;2023-03-25T03:03:25;96773.00;;;8.12;87.93
3812;BME280;1921;49.368;11.068;2023-03-25T03:05:58;96923.66;;;8.92;88.72
3812;BME280;1921;49.368;11.068;2023-03-25T03:08:40;96893.13;;;8.79;88.20
3812;BME280;1921;49.368;11.068;2023-03-25T03:11:44;96950.56;;;9.21;87.68
3812;BME280;1921;49.368;11.068;2023-03-25T03:22:53;96895.25;;;9.12;86.29
3812;BME280;1921;49.368;11.068;2023-03-25T03:28:50;96932.16;;;9.43;86.54
3812;BME280;1921;49.368;11.068;2023-03-25T03:31:25;96890.91;;;9.19;86.38
3812;BME280;1921;49.368;11.068;2023-03-25T03:33:59;96925.53;;;9.41;85.25
3812;BME280;1921;49.368;11.068;2023-03-25T03:36:32;96861.94;;;9.01;85.75
3812;BME280;1921;49.368;11.068;2023-03-25T03:39:08;96904.34;;;9.23;85.75
3812;BME280;1921;49.368;11.068;2023-03-25T03:41:38;96919.41;;;9.27;85.97
3812;BME280;1921;49.368;11.068;2023-03-25T03:44:13;96919.50;;;9.19;86.27
3812;BME280;1921;49.368;11.068;2023-03-25T03:47:03;96952.25;;;9.28;86.70
3812;BME280;1921;49.368;11.068;2023-03-25T03:49:41;96935.03;;;9.27;87.22
3812;BME280;1921;49.368;11.068;2023-03-25T03:52:24;96918.91;;;9.17;86.99
3812;BME280;1921;49.368;11.068;2023-03-25T03:54:58;96949.25;;;9.31;86.96
3812;BME280;1921;49.368;11.068;2023-03-25T03:57:31;96941.28;;;9.33;86.53
3812;BME280;1921;49.368;11.068;2023-03-25T04:00:16;96924.81;;;9.26;86.46
3812;BME280;1921;49.368;11.068;2023-03-25T04:02:54;96941.53;;;9.38;85.85
3812;BME280;1921;49.368;11.068;2023-03-25T04:05:24;96931.16;;;9.23;86.42
3812;BME280;1921;49.368;11.068;2023-03-25T04:08:06;96930.56;;;9.21;86.82
3812;BME280;1921;49.368;11.068;2023-03-25T04:10:58;96929.25;;;9.10;87.30
3812;BME280;1921;49.368;11.068;2023-03-25T04:13:34;96922.56;;;9.01;88.33
3812;BME280;1921;49.368;11.068;2023-03-25T04:16:01;96948.97;;;9.20;88.53
3812;BME280;1921;49.368;11.068;2023-03-25T04:18:27;96938.22;;;9.08;89.04
3812;BME280;1921;49.368;11.068;2023-03-25T04:20:54;96978.47;;;9.12;90.23
3812;BME280;1921;49.368;11.068;2023-03-25T04:23:20;96892.47;;;8.41;90.70
3812;BME280;1921;49.368;11.068;2023-03-25T04:25:47;96947.09;;;8.62;91.94
3812;BME280;1921;49.368;11.068;2023-03-25T04:28:18;96906.25;;;8.12;93.14
3812;BME280;1921;49.368;11.068;2023-03-25T04:30:44;96907.94;;;8.05;93.55
3812;BME280;1921;49.368;11.068;2023-03-25T04:33:11;96886.38;;;7.90;94.36
3812;BME280;1921;49.368;11.068;2023-03-25T04:35:38;96940.19;;;8.10;93.62
3812;BME280;1921;49.368;11.068;2023-03-25T04:38:06;96846.84;;;7.50;93.19
3812;BME280;1921;49.368;11.068;2023-03-25T04:40:32;96907.13;;;7.90;90.93
3812;BME280;1921;49.368;11.068;2023-03-25T04:42:58;96951.19;;;8.13;90.19
3812;BME280;1921;49.368;11.068;2023-03-25T04:45:24;96869.34;;;7.72;88.98
3812;BME280;1921;49.368;11.068;2023-03-25T04:47:51;96871.47;;;7.69;87.06
3812;BME280;1921;49.368;11.068;2023-03-25T04:50:36;96929.78;;;7.96;86.15
3812;BME280;1921;49.368;11.068;2023-03-25T04:53:02;96922.25;;;8.01;86.40
3812;BME280;1921;49.368;11.068;2023-03-25T04:55:28;96932.13;;;8.20;84.82
3812;BME280;1921;49.368;11.068;2023-03-25T04:57:54;96932.41;;;8.10;83.50
3812;BME280;1921;49.368;11.068;2023-03-25T05:00:23;96909.91;;;8.03;81.39
3812;BME280;1921;49.368;11.068;2023-03-25T05:02:52;96881.63;;;8.08;79.24
3812;BME280;1921;49.368;11.068;2023-03-25T05:05:23;96865.69;;;7.96;80.22
3812;BME280;1921;49.368;11.068;2023-03-25T05:07:55;96909.03;;;8.10;78.45
3812;BME280;1921;49.368;11.068;2023-03-25T05:10:24;96904.25;;;7.99;79.54
3812;BME280;1921;49.368;11.068;2023-03-25T05:12:58;96964.13;;;8.35;78.52
3812;BME280;1921;49.368;11.068;2023-03-25T05:15:24;96894.06;;;7.98;78.93
3812;BME280;1921;49.368;11.068;2023-03-25T05:17:51;96942.38;;;8.36;78.29
3812;BME280;1921;49.368;11.068;2023-03-25T05:20:16;96947.53;;;8.22;77.51
3812;BME280;1921;49.368;11.068;2023-03-25T05:22:42;96855.72;;;7.55;78.00
3812;BME280;1921;49.368;11.068;2023-03-25T05:25:10;96939.38;;;7.95;77.87
3812;BME280;1921;49.368;11.068;2023-03-25T05:27:37;96952.06;;;7.90;79.98
3812;BME280;1921;49.368;11.068;2023-03-25T05:30:05;96918.94;;;7.77;79.78
3812;BME280;1921;49.368;11.068;2023-03-25T05:32:31;96955.75;;;8.25;78.86
3812;BME280;1921;49.368;11.068;2023-03-25T05:35:03;96998.72;;;8.51;79.47
3812;BME280;1921;49.368;11.068;2023-03-25T05:37:29;96999.25;;;8.61;78.08
3812;BME280;1921;49.368;11.068;2023-03-25T05:39:55;96998.72;;;8.66;77.85
3812;BME280;1921;49.368;11.068;2023-03-25T05:42:21;96911.72;;;8.02;78.05
3812;BME280;1921;49.368;11.068;2023-03-25T05:44:51;96983.50;;;8.48;78.11
3812;BME280;1921;49.368;11.068;2023-03-25T05:47:21;96955.81;;;8.40;77.19
3812;BME280;1921;49.368;11.068;2023-03-25T05:49:49;97002.31;;;8.65;77.17
3812;BME280;1921;49.368;11.068;2023-03-25T05:52:16;97026.78;;;8.70;77.58
3812;BME280;1921;49.368;11.068;2023-03-25T05:54:46;96998.84;;;8.57;77.21
3812;BME280;1921;49.368;11.068;2023-03-25T05:57:15;96998.63;;;8.59;77.33
3812;BME280;1921;49.368;11.068;2023-03-25T05:59:40;96955.69;;;8.33;76.67
3812;BME280;1921;49.368;11.068;2023-03-25T06:02:13;97022.66;;;8.76;75.70
3812;BME280;1921;49.368;11.068;2023-03-25T06:04:39;97001.59;;;8.41;76.88
3812;BME280;1921;49.368;11.068;2023-03-25T06:07:10;97016.13;;;8.65;76.42
3812;BME280;1921;49.368;11.068;2023-03-25T06:09:42;96996.66;;;8.46;75.38
3812;BME280;1921;49.368;11.068;2023-03-25T06:12:16;97038.88;;;8.78;76.09
3812;BME280;1921;49.368;11.068;2023-03-25T06:14:44;97018.63;;;8.73;74.78
3812;BME280;1921;49.368;11.068;2023-03-25T06:17:15;97014.59;;;8.71;75.41
3812;BME280;1921;49.368;11.068;2023-03-25T06:19:43;97045.88;;;9.07;74.04
3812;BME280;1921;49.368;11.068;2023-03-25T06:22:10;97068.88;;;9.25;73.27
3812;BME280;1921;49.368;11.068;2023-03-25T06:24:37;97044.59;;;9.03;74.57
3812;BME280;1921;49.368;11.068;2023-03-25T06:27:06;97022.84;;;8.89;74.34
3812;BME280;1921;49.368;11.068;2023-03-25T06:29:34;97013.69;;;8.78;74.42
3812;BME280;1921;49.368;11.068;2023-03-25T06:32:02;97058.56;;;9.16;73.48
3812;BME280;1921;49.368;11.068;2023-03-25T06:34:28;97040.09;;;9.11;72.88
3812;BME280;1921;49.368;11.068;2023-03-25T06:36:58;97046.78;;;9.35;73.15
3812;BME280;1921;49.368;11.068;2023-03-25T06:39:23;97045.06;;;9.42;72.65
3812;BME280;1921;49.368;11.068;2023-03-25T06:41:49;96998.19;;;9.21;72.05
3812;BME280;1921;49.368;11.068;2023-03-25T06:44:15;97010.00;;;9.38;71.27
3812;BME280;1921;49.368;11.068;2023-03-25T06:46:42;97027.16;;;9.54;72.06
3812;BME280;1921;49.368;11.068;2023-03-25T06:49:08;97015.28;;;9.45;71.12
3812;BME280;1921;49.368;11.068;2023-03-25T06:51:34;97021.81;;;9.41;72.08
3812;BME280;1921;49.368;11.068;2023-03-25T06:53:59;97001.75;;;9.56;71.20
3812;BME280;1921;49.368;11.068;2023-03-25T06:56:25;97038.28;;;9.84;70.60
3812;BME280;1921;49.368;11.068;2023-03-25T06:58:51;97017.56;;;9.55;71.96
3812;BME280;1921;49.368;11.068;2023-03-25T07:01:17;97019.59;;;9.81;71.16
3812;BME280;1921;49.368;11.068;2023-03-25T07:03:43;97016.13;;;9.95;70.20
3812;BME280;1921;49.368;11.068;2023-03-25T07:06:16;97054.75;;;10.34;70.93
3812;BME280;1921;49.368;11.068;2023-03-25T07:08:42;97062.75;;;10.61;68.30
3812;BME280;1921;49.368;11.068;2023-03-25T07:11:09;97019.75;;;10.43;67.97
3812;BME280;1921;49.368;11.068;2023-03-25T07:13:37;97030.00;;;9.81;70.89
3812;BME280;1921;49.368;11.068;2023-03-25T07:16:03;97052.03;;;10.49;69.52
3812;BME280;1921;49.368;11.068;2023-03-25T07:18:29;97039.63;;;10.51;69.89
3812;BME280;1921;49.368;11.068;2023-03-25T07:20:54;97043.13;;;10.65;69.67
3812;BME280;1921;49.368;11.068;2023-03-25T07:23:20;97028.22;;;10.52;68.04
3812;BME280;1921;49.368;11.068;2023-03-25T07:25:46;97016.47;;;10.35;69.19
3812;BME280;1921;49.368;11.068;2023-03-25T07:28:13;97022.34;;;10.22;68.75
3812;BME280;1921;49.368;11.068;2023-03-25T07:30:38;97004.72;;;9.96;69.37
3812;BME280;1921;49.368;11.068;2023-03-25T07:33:04;97018.00;;;9.80;69.90
3812;BME280;1921;49.368;11.068;2023-03-25T07:35:30;97030.69;;;9.68;72.10
3812;BME280;1921;49.368;11.068;2023-03-25T07:37:56;97080.69;;;9.99;71.53
3812;BME280;1921;49.368;11.068;2023-03-25T07:40:22;97028.47;;;9.65;71.32
3812;BME280;1921;49.368;11.068;2023-03-25T07:42:48;97043.72;;;9.68;71.36
3812;BME280;1921;49.368;11.068;2023-03-25T07:45:14;97068.09;;;9.82;71.21
3812;BME280;1921;49.368;11.068;2023-03-25T07:47:40;97048.56;;;9.71;71.45
3812;BME280;1921;49.368;11.068;2023-03-25T07:50:06;97020.47;;;9.45;71.77
3812;BME280;1921;49.368;11.068;2023-03-25T07:52:32;97054.38;;;9.73;71.22
3812;BME280;1921;49.368;11.068;2023-03-25T07:54:58;97048.38;;;9.94;70.86
3812;BME280;1921;49.368;11.068;2023-03-25T07:57:25;97050.09;;;10.30;70.36
3812;BME280;1921;49.368;11.068;2023-03-25T07:59:51;97054.41;;;10.72;69.71
3812;BME280;1921;49.368;11.068;2023-03-25T08:02:17;97074.38;;;11.34;68.35
3812;BME280;1921;49.368;11.068;2023-03-25T08:04:42;97024.66;;;11.55;63.67
3812;BME280;1921;49.368;11.068;2023-03-25T08:07:08;97030.50;;;11.71;62.73
3812;BME280;1921;49.368;11.068;2023-03-25T08:09:34;97040.56;;;11.74;63.53
3812;BME280;1921;49.368;11.068;2023-03-25T08:12:00;97027.66;;;11.66;61.55
3812;BME280;1921;49.368;11.068;2023-03-25T08:14:26;97027.88;;;11.77;61.63
3812;BME280;1921;49.368;11.068;2023-03-25T08:16:51;97070.75;;;12.03;60.81
3812;BME280;1921;49.368;11.068;2023-03-25T08:19:17;97053.25;;;11.83;59.79
3812;BME280;1921;49.368;11.068;2023-03-25T08:21:43;97026.50;;;11.75;58.19
3812;BME280;1921;49.368;11.068;2023-03-25T08:24:09;97040.34;;;11.75;58.77
3812;BME280;1921;49.368;11.068;2023-03-25T08:26:36;97026.53;;;11.81;58.05
3812;BME280;1921;49.368;11.068;2023-03-25T08:29:03;97028.34;;;12.27;57.37
3812;BME280;1921;49.368;11.068;2023-03-25T08:31:31;96979.66;;;12.33;55.84
3812;BME280;1921;49.368;11.068;2023-03-25T08:33:58;97056.03;;;12.81;55.61
3812;BME280;1921;49.368;11.068;2023-03-25T08:36:24;97078.19;;;12.72;56.36
3812;BME280;1921;49.368;11.068;2023-03-25T08:38:50;96996.38;;;12.25;55.96
3812;BME280;1921;49.368;11.068;2023-03-25T08:41:16;97022.13;;;12.08;54.55
3812;BME280;1921;49.368;11.068;2023-03-25T08:43:42;97033.91;;;11.65;56.07
3812;BME280;1921;49.368;11.068;2023-03-25T08:46:08;97018.91;;;11.19;57.72
3812;BME280;1921;49.368;11.068;2023-03-25T08:48:34;97060.78;;;11.52;56.82
3812;BME280;1921;49.368;11.068;2023-03-25T08:51:00;97025.63;;;11.48;57.36
3812;BME280;1921;49.368;11.068;2023-03-25T08:53:26;97013.78;;;11.45;56.48
3812;BME280;1921;49.368;11.068;2023-03-25T08:55:53;97008.38;;;11.73;56.64
3812;BME280;1921;49.368;11.068;2023-03-25T08:58:20;97013.88;;;12.31;53.35
3812;BME280;1921;49.368;11.068;2023-03-25T09:00:51;96996.56;;;12.10;52.99
3812;BME280;1921;49.368;11.068;2023-03-25T09:03:21;97059.31;;;12.44;53.99
3812;BME280;1921;49.368;11.068;2023-03-25T09:05:48;96998.19;;;12.25;53.30
3812;BME280;1921;49.368;11.068;2023-03-25T09:08:14;97029.41;;;12.98;52.63
3812;BME280;1921;49.368;11.068;2023-03-25T09:10:40;97042.00;;;13.34;52.90
3812;BME280;1921;49.368;11.068;2023-03-25T09:13:06;97003.72;;;13.96;50.87
3812;BME280;1921;49.368;11.068;2023-03-25T09:15:32;97037.25;;;14.44;50.42
3812;BME280;1921;49.368;11.068;2023-03-25T09:17:57;97047.47;;;14.52;49.28
3812;BME280;1921;49.368;11.068;2023-03-25T09:20:23;97000.25;;;14.70;48.16
3812;BME280;1921;49.368;11.068;2023-03-25T09:22:49;96962.97;;;15.47;46.53
3812;BME280;1921;49.368;11.068;2023-03-25T09:25:15;96982.06;;;15.96;45.55
3812;BME280;1921;49.368;11.068;2023-03-25T09:27:41;96992.50;;;16.26;43.86
3812;BME280;1921;49.368;11.068;2023-03-25T09:30:09;97002.06;;;15.55;46.03
3812;BME280;1921;49.368;11.068;2023-03-25T09:32:35;96962.00;;;15.71;45.26
3812;BME280;1921;49.368;11.068;2023-03-25T09:35:01;96984.59;;;16.02;44.43
3812;BME280;1921;49.368;11.068;2023-03-25T09:37:27;96983.75;;;15.67;45.43
3812;BME280;1921;49.368;11.068;2023-03-25T09:39:52;97024.25;;;15.89;45.27
3812;BME280;1921;49.368;11.068;2023-03-25T09:45:28;96970.66;;;16.37;44.53
3812;BME280;1921;49.368;11.068;2023-03-25T09:50:51;97034.66;;;16.84;44.70
3812;BME280;1921;49.368;11.068;2023-03-25T09:55:53;97035.06;;;17.05;42.40
3812;BME280;1921;49.368;11.068;2023-03-25T09:58:55;97037.75;;;15.93;43.95
3812;BME280;1921;49.368;11.068;2023-03-25T10:06:26;97027.22;;;14.59;48.21
3812;BME280;1921;49.368;11.068;2023-03-25T10:12:11;97019.88;;;14.68;48.31
3812;BME280;1921;49.368;11.068;2023-03-25T10:17:35;97025.91;;;15.42;47.44
3812;BME280;1921;49.368;11.068;2023-03-25T10:23:16;96954.44;;;15.33;46.03
3812;BME280;1921;49.368;11.068;2023-03-25T10:25:51;96967.00;;;15.01;47.32
3812;BME280;1921;49.368;11.068;2023-03-25T10:28:31;96958.78;;;14.61;48.15
3812;BME280;1921;49.368;11.068;2023-03-25T10:30:59;96944.22;;;14.40;48.40
3812;BME280;1921;49.368;11.068;2023-03-25T10:33:38;96985.34;;;14.46;50.67
3812;BME280;1921;49.368;11.068;2023-03-25T10:36:11;96984.59;;;14.39;50.13
3812;BME280;1921;49.368;11.068;2023-03-25T10:38:43;96995.31;;;14.37;50.29
3812;BME280;1921;49.368;11.068;2023-03-25T10:41:32;96928.50;;;13.71;51.63
3812;BME280;1921;49.368;11.068;2023-03-25T10:44:00;96944.63;;;13.75;51.46
3812;BME280;1921;49.368;11.068;2023-03-25T10:46:40;96939.16;;;13.77;53.91
3812;BME280;1921;49.368;11.068;2023-03-25T10:49:24;96963.53;;;13.52;55.96
3812;BME280;1921;49.368;11.068;2023-03-25T10:51:52;96975.09;;;13.69;55.45
3812;BME280;1921;49.368;11.068;2023-03-25T10:54:21;96995.13;;;13.89;55.01
3812;BME280;1921;49.368;11.068;2023-03-25T10:56:52;96990.94;;;13.81;53.78
3812;BME280;1921;49.368;11.068;2023-03-25T11:02:21;96936.66;;;13.63;55.16
3812;BME280;1921;49.368;11.068;2023-03-25T11:04:54;96981.78;;;13.65;54.59
3812;BME280;1921;49.368;11.068;2023-03-25T11:07:26;96934.31;;;13.10;60.57
3812;BME280;1921;49.368;11.068;2023-03-25T11:10:30;96986.84;;;12.64;64.67
3812;BME280;1921;49.368;11.068;2023-03-25T11:12:57;96951.06;;;11.25;69.04
3812;BME280;1921;49.368;11.068;2023-03-25T11:15:35;96998.50;;;10.46;78.90
3812;BME280;1921;49.368;11.068;2023-03-25T11:18:26;97064.06;;;9.79;88.24
3812;BME280;1921;49.368;11.068;2023-03-25T11:21:07;97039.13;;;8.98;95.67
3812;BME280;1921;49.368;11.068;2023-03-25T11:26:25;97042.81;;;8.59;99.43
3812;BME280;1921;49.368;11.068;2023-03-25T11:29:01;96991.28;;;8.48;99.22
3812;BME280;1921;49.368;11.068;2023-03-25T11:31:34;96980.06;;;8.62;99.29
3812;BME280;1921;49.368;11.068;2023-03-25T11:41:49;97023.16;;;10.85;96.99
3812;BME280;1921;49.368;11.068;2023-03-25T11:44:29;96979.31;;;10.61;91.95
3812;BME280;1921;49.368;11.068;2023-03-25T11:47:07;96980.88;;;10.55;90.62
3812;BME280;1921;49.368;11.068;2023-03-25T11:49:38;96907.59;;;10.02;92.77
3812;BME280;1921;49.368;11.068;2023-03-25T11:52:13;97016.53;;;10.76;94.88
3812;BME280;1921;49.368;11.068;2023-03-25T11:54:41;96953.91;;;10.35;94.63
3812;BME280;1921;49.368;11.068;2023-03-25T11:57:15;96932.47;;;10.11;93.31
3812;BME280;1921;49.368;11.068;2023-03-25T11:59:47;96915.41;;;10.02;94.92
3812;BME280;1921;49.368;11.068;2023-03-25T12:02:29;97005.88;;;10.43;95.25
3812;BME280;1921;49.368;11.068;2023-03-25T12:05:17;96961.94;;;10.33;96.97
3812;BME280;1921;49.368;11.068;2023-03-25T12:07:50;96962.34;;;10.78;98.24
3812;BME280;1921;49.368;11.068;2023-03-25T12:22:07;96982.13;;;11.81;91.69
3812;BME280;1921;49.368;11.068;2023-03-25T12:24:55;96978.91;;;11.99;88.50
3812;BME280;1921;49.368;11.068;2023-03-25T12:30:47;96962.13;;;12.47;84.96
3812;BME280;1921;49.368;11.068;2023-03-25T12:34:05;96890.44;;;12.09;78.71
3812;BME280;1921;49.368;11.068;2023-03-25T12:36:51;96900.69;;;11.98;82.44
3812;BME280;1921;49.368;11.068;2023-03-25T12:42:46;96935.97;;;13.74;77.67
3812;BME280;1921;49.368;11.068;2023-03-25T12:45:31;96945.91;;;14.34;70.72
3812;BME280;1921;49.368;11.068;2023-03-25T12:48:22;96884.88;;;14.64;67.72
3812;BME280;1921;49.368;11.068;2023-03-25T12:51:22;96937.59;;;15.41;67.27
3812;BME280;1921;49.368;11.068;2023-03-25T12:59:40;96930.16;;;15.38;63.32
3812;BME280;1921;49.368;11.068;2023-03-25T13:03:12;96907.34;;;15.20;58.91
3812;BME280;1921;49.368;11.068;2023-03-25T13:12:40;96928.81;;;13.32;66.16
3812;BME280;1921;49.368;11.068;2023-03-25T13:15:21;96969.63;;;11.77;75.55
3812;BME280;1921;49.368;11.068;2023-03-25T13:18:26;96918.69;;;9.61;87.24
3812;BME280;1921;49.368;11.068;2023-03-25T13:21:20;96918.50;;;8.62;98.54
3812;BME280;1921;49.368;11.068;2023-03-25T13:23:54;96969.03;;;8.89;100.00
3812;BME280;1921;49.368;11.068;2023-03-25T13:26:24;96956.88;;;9.11;100.00
3812;BME280;1921;49.368;11.068;2023-03-25T13:29:05;96963.06;;;9.75;100.00
3812;BME280;1921;49.368;11.068;2023-03-25T13:31:39;96944.34;;;10.14;98.99
3812;BME280;1921;49.368;11.068;2023-03-25T13:45:18;96921.31;;;11.00;91.34
3812;BME280;1921;49.368;11.068;2023-03-25T13:48:17;96953.47;;;11.14;88.64
3812;BME280;1921;49.368;11.068;2023-03-25T13:50:43;96957.91;;;11.26;82.20
3812;BME280;1921;49.368;11.068;2023-03-25T13:53:19;96902.44;;;11.04;88.41
3812;BME280;1921;49.368;11.068;2023-03-25T13:59:06;96949.69;;;13.70;77.89
3812;BME280;1921;49.368;11.068;2023-03-25T14:10:53;97002.88;;;11.28;86.71
3812;BME280;1921;49.368;11.068;2023-03-25T14:13:31;96990.25;;;10.77;89.61
3812;BME280;1921;49.368;11.068;2023-03-25T14:16:13;96956.84;;;10.60;91.77
3812;BME280;1921;49.368;11.068;2023-03-25T14:18:48;96945.00;;;10.50;88.38
3812;BME280;1921;49.368;11.068;2023-03-25T14:24:11;96954.56;;;12.25;78.17
3812;BME280;1921;49.368;11.068;2023-03-25T14:26:49;96911.13;;;12.24;72.39
3812;BME280;1921;49.368;11.068;2023-03-25T14:29:35;96917.63;;;12.60;74.45
3812;BME280;1921;49.368;11.068;2023-03-25T14:48:36;96945.31;;;13.64;62.79
3812;BME280;1921;49.368;11.068;2023-03-25T14:51:41;96733.19;;;12.82;61.85
3812;BME280;1921;49.368;11.068;2023-03-25T14:54:33;96944.59;;;14.25;60.95
3812;BME280;1921;49.368;11.068;2023-03-25T14:57:24;96951.50;;;14.63;58.28
3812;BME280;1921;49.368;11.068;2023-03-25T15:00:03;96946.81;;;14.65;57.54
3812;BME280;1921;49.368;11.068;2023-03-25T15:02:42;96958.09;;;14.28;57.67
3812;BME280;1921;49.368;11.068;2023-03-25T15:07:58;96933.13;;;13.76;59.91
3812;BME280;1921;49.368;11.068;2023-03-25T15:10:33;96943.25;;;13.66;63.28
3812;BME280;1921;49.368;11.068;2023-03-25T15:16:37;96954.41;;;13.16;66.79
3812;BME280;1921;49.368;11.068;2023-03-25T15:19:11;96943.56;;;12.75;67.48
3812;BME280;1921;49.368;11.068;2023-03-25T15:24:40;96964.88;;;12.78;65.77
3812;BME280;1921;49.368;11.068;2023-03-25T15:39:14;96917.44;;;15.23;56.26
3812;BME280;1921;49.368;11.068;2023-03-25T15:56:21;96935.41;;;17.02;48.73
3812;BME280;1921;49.368;11.068;2023-03-25T15:59:05;96885.31;;;16.33;49.64
3812;BME280;1921;49.368;11.068;2023-03-25T16:01:34;96921.03;;;16.29;48.76
3812;BME280;1921;49.368;11.068;2023-03-25T16:06:42;96902.34;;;16.54;49.83
3812;BME280;1921;49.368;11.068;2023-03-25T16:09:20;96879.72;;;16.18;50.09
3812;BME280;1921;49.368;11.068;2023-03-25T16:11:46;96903.75;;;16.85;50.91
3812;BME280;1921;49.368;11.068;2023-03-25T16:14:16;96917.84;;;16.90;48.63
3812;BME280;1921;49.368;11.068;2023-03-25T16:16:54;96899.97;;;17.21;47.28
3812;BME280;1921;49.368;11.068;2023-03-25T16:19:33;96896.56;;;17.54;47.19
3812;BME280;1921;49.368;11.068;2023-03-25T16:22:03;96898.56;;;17.47;46.04
3812;BME280;1921;49.368;11.068;2023-03-25T16:24:34;96870.72;;;17.22;46.77
3812;BME280;1921;49.368;11.068;2023-03-25T16:27:17;96904.56;;;16.85;47.43
3812;BME280;1921;49.368;11.068;2023-03-25T16:29:51;96883.25;;;16.35;47.31
3812;BME280;1921;49.368;11.068;2023-03-25T16:32:30;96905.69;;;15.37;49.47
3812;BME280;1921;49.368;11.068;2023-03-25T16:34:56;96878.88;;;14.38;51.85